Time;durP1;ratioP1;P1;durP2;ratioP2;P2;SDS_P1;SDS_P2;PMS_P1;PMS_P2;Temp;Humidity;BMP_temperature;BMP_pressure;BME280_temperature;BME280_humidity;BME280_pressure;Samples;Min_cycle;Max_cycle;Signal;HPM_P1;HPM_P2
2022/11/28 00:01:40;;;;;;;0.98;0.98;;;;;;;6.05;86.50;100159.78;4305779;33;32594;-73
2022/11/28 00:04:09;;;;;;;3.03;2.73;;;;;;;6.57;84.34;100159.91;4305892;33;33910;-93
2022/11/28 00:06:39;;;;;;;3.72;2.83;;;;;;;6.58;84.12;100163.38;4318847;33;35871;-89
2022/11/28 00:09:08;;;;;;;1.00;1.00;;;;;;;6.44;85.01;100163.09;4305918;33;34459;-93
2022/11/28 00:11:39;;;;;;;1.05;1.00;;;;;;;6.58;84.24;100159.09;4318705;33;34534;-72
2022/11/28 00:14:08;;;;;;;5.80;3.50;;;;;;;6.75;83.65;100164.56;4305603;33;33136;-93
2022/11/28 00:16:36;;;;;;;7.97;1.85;;;;;;;6.57;83.82;100166.81;4317611;33;35741;-75
2022/11/28 00:19:04;;;;;;;2.87;2.67;;;;;;;6.95;83.12;100164.91;4318732;33;35116;-72
2022/11/28 00:21:33;;;;;;;1.20;1.20;;;;;;;7.18;81.52;100162.72;4319925;33;34217;-72
2022/11/28 00:24:02;;;;;;;3.60;3.28;;;;;;;6.66;83.55;100159.22;4307352;33;34065;-86
2022/11/28 00:26:33;;;;;;;2.28;2.08;;;;;;;6.43;85.71;100163.97;4307306;33;35944;-93
2022/11/28 00:29:03;;;;;;;3.00;1.80;;;;;;;6.15;87.41;100160.81;4307368;33;35339;-85
2022/11/28 00:31:34;;;;;;;2.35;1.67;;;;;;;6.66;84.81;100159.22;4307495;33;33565;-93
2022/11/28 00:34:03;;;;;;;1.98;1.77;;;;;;;6.69;84.20;100158.38;4320743;33;34924;-73
2022/11/28 00:36:31;;;;;;;3.60;2.20;;;;;;;6.49;85.15;100158.03;4320672;33;36006;-93
2022/11/28 00:38:59;;;;;;;1.33;1.27;;;;;;;6.53;85.32;100158.13;4320328;33;35204;-94
2022/11/28 00:41:29;;;;;;;2.97;2.72;;;;;;;6.49;85.37;100158.87;4320453;33;34190;-93
2022/11/28 00:43:57;;;;;;;1.42;1.42;;;;;;;6.66;84.46;100161.81;4307321;33;34036;-89
2022/11/28 00:46:26;;;;;;;1.67;1.58;;;;;;;7.14;82.78;100160.91;4320507;33;35072;-87
2022/11/28 00:48:56;;;;;;;1.67;1.40;;;;;;;6.79;83.62;100168.06;4307510;33;34551;-92
2022/11/28 00:51:27;;;;;;;2.45;2.03;;;;;;;6.59;85.21;100162.53;4320249;33;33485;-72
2022/11/28 00:53:57;;;;;;;0.95;0.95;;;;;;;6.75;84.34;100161.09;4307205;33;34055;-72
2022/11/28 00:56:32;;;;;;;2.22;1.85;;;;;;;6.61;85.36;100169.47;4307203;33;34921;-91
2022/11/28 00:59:00;;;;;;;2.50;2.37;;;;;;;6.39;87.08;100157.00;4307132;33;35140;-94
2022/11/28 01:01:31;;;;;;;1.42;1.33;;;;;;;6.57;86.47;100167.69;4318962;33;34582;-90
2022/11/28 01:04:01;;;;;;;4.18;2.47;;;;;;;6.44;86.41;100163.09;4307137;33;34286;-93
2022/11/28 01:06:32;;;;;;;0.90;0.90;;;;;;;6.41;86.99;100160.47;4320181;33;34295;-94
2022/11/28 01:09:04;;;;;;;4.70;2.40;;;;;;;6.69;85.78;100160.97;4320274;33;34548;-93
2022/11/28 01:11:33;;;;;;;1.08;1.05;;;;;;;6.44;87.06;100158.81;4320066;33;33474;-73
2022/11/28 01:14:01;;;;;;;2.05;1.90;;;;;;;6.69;85.65;100161.88;4319244;33;33694;-92
2022/11/28 01:16:29;;;;;;;1.17;0.80;;;;;;;6.84;84.69;100156.94;4306996;33;35024;-72
2022/11/28 01:18:58;;;;;;;1.08;1.08;;;;;;;6.61;85.66;100148.78;4320143;33;34423;-92
2022/11/28 01:21:26;;;;;;;2.67;2.47;;;;;;;6.58;85.94;100143.56;4320180;33;34249;-72
2022/11/28 01:23:54;;;;;;;0.68;0.68;;;;;;;6.70;85.40;100149.78;4318851;33;33690;-72
2022/11/28 01:26:26;;;;;;;1.00;1.00;;;;;;;6.77;84.99;100154.22;4318893;33;35129;-73
2022/11/28 01:28:54;;;;;;;1.62;1.52;;;;;;;6.68;85.57;100149.75;4320006;33;34392;-73
2022/11/28 01:31:25;;;;;;;0.60;0.60;;;;;;;6.52;86.47;100147.75;4320279;33;33328;-73
2022/11/28 01:33:53;;;;;;;2.92;1.85;;;;;;;6.43;87.52;100151.03;4319584;33;34806;-91
2022/11/28 01:36:21;;;;;;;1.73;1.62;;;;;;;7.10;84.78;100150.47;4320233;33;34925;-94
2022/11/28 01:38:50;;;;;;;4.22;2.30;;;;;;;7.10;84.78;100142.72;4306982;33;34354;-93
2022/11/28 01:41:21;;;;;;;1.65;1.55;;;;;;;6.82;84.57;100142.25;4319984;33;33440;-94
2022/11/28 01:43:58;;;;;;;0.88;0.88;;;;;;;7.13;84.08;100133.28;4319901;33;34056;-91
2022/11/28 01:46:28;;;;;;;3.30;3.03;;;;;;;7.03;82.88;100132.25;4306800;33;35063;-90
2022/11/28 01:49:00;;;;;;;0.93;0.93;;;;;;;6.89;84.18;100122.50;4294962;33;34462;-72
2022/11/28 01:51:29;;;;;;;1.60;1.52;;;;;;;6.92;84.21;100119.94;4294975;33;33616;-94
2022/11/28 01:53:58;;;;;;;7.62;3.70;;;;;;;6.70;84.23;100121.31;4306909;33;33963;-79
2022/11/28 01:56:28;;;;;;;1.05;1.00;;;;;;;7.13;82.66;100116.84;4319757;33;36006;-95
2022/11/28 01:59:01;;;;;;;2.42;2.33;;;;;;;7.08;83.15;100113.34;4319978;33;33797;-74
2022/11/28 02:01:30;;;;;;;1.50;1.40;;;;;;;6.71;84.18;100105.81;4318856;33;33111;-93
2022/11/28 02:03:59;;;;;;;2.50;2.28;;;;;;;7.09;82.40;100107.28;4318689;33;34034;-93
2022/11/28 02:06:27;;;;;;;3.25;2.62;;;;;;;6.98;82.55;100107.12;4318528;33;35989;-92
2022/11/28 02:08:55;;;;;;;0.60;0.60;;;;;;;6.46;84.40;100101.94;4306647;33;34437;-93
2022/11/28 02:11:52;;;;;;;2.30;2.10;;;;;;;6.71;82.72;100098.06;4319675;33;33418;-92
2022/11/28 02:14:58;;;;;;;0.98;0.98;;;;;;;6.28;83.60;100104.16;4319648;33;34778;-92
2022/11/28 02:17:36;;;;;;;1.60;1.45;;;;;;;5.99;84.50;100101.91;4319715;33;35153;-76
2022/11/28 02:20:30;;;;;;;1.30;1.23;;;;;;;6.26;83.56;100096.38;4319730;33;35326;-90
2022/11/28 02:23:07;;;;;;;1.20;1.17;;;;;;;6.33;82.04;100094.78;4319875;33;34122;-92
2022/11/28 02:25:54;;;;;;;1.30;1.20;;;;;;;6.55;81.61;100091.75;4319534;33;34850;-90
2022/11/28 02:28:31;;;;;;;1.12;1.12;;;;;;;6.35;80.84;100088.78;4319726;33;34912;-73
2022/11/28 02:31:24;;;;;;;2.00;1.90;;;;;;;5.81;83.10;100089.44;4319666;33;34755;-94
2022/11/28 02:33:56;;;;;;;1.45;1.35;;;;;;;5.47;84.57;100099.03;4318378;33;34221;-87
2022/11/28 02:37:02;;;;;;;0.75;0.75;;;;;;;5.41;84.33;100093.75;4306648;33;34759;-90
2022/11/28 02:39:37;;;;;;;2.05;1.95;;;;;;;5.03;86.67;100094.63;4292418;33;36129;-93
2022/11/28 02:42:27;;;;;;;0.98;0.98;;;;;;;5.29;83.78;100089.16;4319637;33;34447;-92
2022/11/28 02:45:34;;;;;;;1.00;1.00;;;;;;;4.93;86.03;100087.47;4306478;33;33619;-93
2022/11/28 02:48:07;;;;;;;9.73;4.97;;;;;;;5.46;83.37;100080.09;4319636;33;33800;-91
2022/11/28 02:50:59;;;;;;;1.67;1.58;;;;;;;5.01;84.33;100080.81;4319584;33;35884;-93
2022/11/28 02:53:29;;;;;;;1.87;1.77;;;;;;;4.69;86.85;100080.87;4314656;33;34638;-86
2022/11/28 02:55:58;;;;;;;1.73;1.62;;;;;;;5.11;85.63;100079.31;4306563;33;32729;-72
2022/11/28 02:58:26;;;;;;;1.17;1.02;;;;;;;5.24;83.83;100071.00;4306624;33;33951;-86
2022/11/28 03:00:55;;;;;;;0.80;0.80;;;;;;;5.31;83.63;100077.16;4319407;33;34925;-72
2022/11/28 03:03:27;;;;;;;1.92;1.33;;;;;;;5.03;84.11;100071.37;4306357;33;35126;-89
2022/11/28 03:06:29;;;;;;;4.43;3.30;;;;;;;5.30;83.53;100065.09;4319423;33;34200;-93
2022/11/28 03:09:16;;;;;;;0.93;0.93;;;;;;;5.22;83.64;100067.50;4319294;33;34759;-92
2022/11/28 03:11:56;;;;;;;3.97;2.70;;;;;;;4.98;85.30;100067.81;4319370;33;34091;-79
2022/11/28 03:14:33;;;;;;;1.23;1.15;;;;;;;5.19;85.53;100066.56;4319281;33;35318;-82
2022/11/28 03:17:18;;;;;;;0.77;0.77;;;;;;;4.42;90.02;100064.72;4319480;33;33249;-94
2022/11/28 03:20:03;;;;;;;3.55;3.25;;;;;;;4.24;92.11;100065.97;4306366;33;34720;-79
2022/11/28 03:22:47;;;;;;;2.35;2.20;;;;;;;4.57;91.34;100062.53;4319248;33;35011;-92
2022/11/28 03:25:40;;;;;;;1.00;0.90;;;;;;;4.59;92.43;100055.72;4319219;33;34419;-93
2022/11/28 03:28:17;;;;;;;2.05;1.95;;;;;;;4.84;92.14;100049.44;4319371;33;33378;-72
2022/11/28 03:31:23;;;;;;;2.72;2.53;;;;;;;5.33;88.73;100044.53;4319323;33;34841;-93
2022/11/28 03:33:57;;;;;;;1.08;1.08;;;;;;;5.37;88.71;100038.56;4319331;33;34193;-92
2022/11/28 03:36:34;;;;;;;1.33;1.27;;;;;;;5.68;87.02;100042.69;4306088;33;34339;-93
2022/11/28 03:39:11;;;;;;;0.57;0.57;;;;;;;5.70;87.93;100035.81;4318083;33;33692;-92
2022/11/28 03:41:47;;;;;;;1.48;1.45;;;;;;;5.41;89.37;100022.28;4294358;33;33924;-75
2022/11/28 03:44:22;;;;;;;4.25;2.78;;;;;;;5.02;91.32;100023.16;4319430;33;35182;-93
2022/11/28 03:46:50;;;;;;;2.00;1.90;;;;;;;5.50;89.42;100019.91;4317982;33;35117;-93
2022/11/28 03:49:38;;;;;;;0.60;0.60;;;;;;;5.47;88.69;100017.28;4294125;33;33407;-93
2022/11/28 03:52:26;;;;;;;2.05;1.95;;;;;;;5.54;88.42;100019.97;4318225;33;33849;-93
2022/11/28 03:55:10;;;;;;;1.17;1.12;;;;;;;5.81;87.19;100015.34;4317493;33;34992;-89
2022/11/28 03:57:44;;;;;;;0.90;0.90;;;;;;;5.99;85.41;100009.69;4305918;33;34623;-93
2022/11/28 04:00:13;;;;;;;1.55;1.48;;;;;;;6.14;84.60;100001.38;4305933;33;34323;-82
2022/11/28 04:02:56;;;;;;;2.37;2.25;;;;;;;5.77;85.60;100003.22;4305888;33;34727;-93
2022/11/28 04:05:39;;;;;;;0.80;0.80;;;;;;;5.66;87.20;99999.53;4305668;33;34489;-71
2022/11/28 04:08:28;;;;;;;1.87;1.67;;;;;;;5.75;85.99;99993.69;4319030;33;35340;-93
2022/11/28 04:11:19;;;;;;;1.35;1.27;;;;;;;5.88;87.03;99993.94;4305624;33;33523;-92
2022/11/28 04:13:56;;;;;;;2.47;1.83;;;;;;;5.78;86.62;99992.03;4305900;33;34838;-93
2022/11/28 04:16:34;;;;;;;0.70;0.70;;;;;;;6.04;85.23;99994.28;4318826;33;36019;-94
2022/11/28 04:19:15;;;;;;;2.50;2.30;;;;;;;5.96;85.90;99993.25;4305865;33;35210;-74
2022/11/28 04:21:48;;;;;;;1.27;1.23;;;;;;;6.03;85.21;99988.22;4305662;33;33645;-72
2022/11/28 04:24:21;;;;;;;1.20;1.10;;;;;;;5.86;85.15;99993.06;4318767;33;33912;-93
2022/11/28 04:27:01;;;;;;;4.30;3.40;;;;;;;6.09;84.36;99982.31;4305509;33;35738;-73
2022/11/28 04:29:33;;;;;;;0.73;0.70;;;;;;;5.67;86.80;99991.81;4305376;33;33782;-72
2022/11/28 04:32:03;;;;;;;1.30;1.15;;;;;;;5.60;85.84;99989.09;4305632;33;33588;-93
2022/11/28 04:34:34;;;;;;;0.68;0.68;;;;;;;5.57;86.23;99991.63;4318467;33;33908;-92
2022/11/28 04:37:03;;;;;;;5.97;3.87;;;;;;;5.45;86.98;99992.22;4305453;33;34372;-90
2022/11/28 04:39:37;;;;;;;0.88;0.88;;;;;;;5.86;84.64;99993.06;4318460;33;34564;-95
2022/11/28 04:42:12;;;;;;;2.87;2.62;;;;;;;5.33;86.51;99990.28;4317354;33;33067;-93
2022/11/28 04:44:53;;;;;;;1.33;1.30;;;;;;;6.05;83.66;99985.66;4305503;33;33933;-93
2022/11/28 04:47:22;;;;;;;1.37;1.27;;;;;;;5.34;86.93;99989.44;4317299;33;34673;-95
2022/11/28 04:49:52;;;;;;;1.45;1.35;;;;;;;5.39;86.64;99985.25;4305223;33;34543;-74
2022/11/28 04:52:28;;;;;;;1.35;1.25;;;;;;;5.21;86.54;99977.13;4318363;33;33569;-94
2022/11/28 04:55:24;;;;;;;0.50;0.50;;;;;;;5.70;84.94;99983.28;4318493;33;33907;-72
2022/11/28 04:57:59;;;;;;;4.15;2.83;;;;;;;5.95;84.08;99973.38;4305195;33;35948;-76
2022/11/28 05:00:27;;;;;;;1.67;1.58;;;;;;;5.38;85.71;99980.91;4305208;33;34358;-94
2022/11/28 05:02:55;;;;;;;1.62;1.55;;;;;;;5.54;84.93;99976.94;4304981;33;32638;-72
2022/11/28 05:05:25;;;;;;;1.75;1.20;;;;;;;5.73;84.83;99983.31;4297143;33;253301;-71
2022/11/28 05:07:53;;;;;;;3.55;2.35;;;;;;;5.71;84.47;99979.84;4306038;33;36012;-84
2022/11/28 05:10:21;;;;;;;0.85;0.85;;;;;;;6.06;84.14;99979.66;4320073;33;35237;-72
2022/11/28 05:12:49;;;;;;;4.57;2.37;;;;;;;5.76;83.90;99983.38;4320389;33;33424;-94
2022/11/28 05:15:18;;;;;;;1.27;1.15;;;;;;;5.92;83.33;99984.53;4320100;33;33888;-72
2022/11/28 05:17:45;;;;;;;1.58;1.48;;;;;;;5.62;85.98;99985.69;4320282;33;35990;-95
2022/11/28 05:20:13;;;;;;;2.62;1.67;;;;;;;5.79;83.88;99988.63;4320119;33;34596;-80
2022/11/28 05:22:42;;;;;;;1.87;1.77;;;;;;;5.73;84.31;99988.47;4320066;33;33608;-77
2022/11/28 05:25:10;;;;;;;1.92;1.40;;;;;;;5.63;84.01;99986.56;4320072;33;34611;-72
2022/11/28 05:27:38;;;;;;;0.90;0.90;;;;;;;5.80;84.58;99990.34;4319923;33;35085;-94
2022/11/28 05:30:11;;;;;;;2.42;2.28;;;;;;;6.01;83.23;99989.03;4320088;33;34242;-77
2022/11/28 05:32:40;;;;;;;1.17;1.12;;;;;;;5.43;85.89;99997.38;4320032;33;33459;-75
2022/11/28 05:35:08;;;;;;;0.77;0.77;;;;;;;5.72;85.09;100002.25;4306877;33;33842;-94
2022/11/28 05:37:36;;;;;;;2.58;1.87;;;;;;;5.10;88.47;100001.00;4306859;33;35021;-93
2022/11/28 05:40:05;;;;;;;2.15;1.95;;;;;;;5.42;87.42;100008.56;4319953;33;34487;-72
2022/11/28 05:42:34;;;;;;;1.48;1.40;;;;;;;5.25;88.38;100005.59;4318897;33;33285;-89
2022/11/28 05:45:03;;;;;;;1.40;1.23;;;;;;;6.14;84.26;100010.81;4318740;33;34720;-74
2022/11/28 05:47:32;;;;;;;1.45;1.27;;;;;;;5.95;83.65;100015.62;4319902;33;35883;-93
2022/11/28 05:50:00;;;;;;;1.60;1.50;;;;;;;6.19;83.15;100010.03;4318759;33;34450;-72
2022/11/28 05:52:30;;;;;;;1.17;1.15;;;;;;;5.86;84.21;100018.03;4319930;33;34296;-95
2022/11/28 05:54:59;;;;;;;2.03;1.92;;;;;;;6.01;83.95;100004.56;4320053;33;34142;-85
2022/11/28 05:57:28;;;;;;;3.10;2.80;;;;;;;5.81;84.56;100007.59;4320412;33;35963;-73
2022/11/28 05:59:56;;;;;;;2.25;1.12;;;;;;;5.68;85.38;100010.78;4321076;33;34466;-94
2022/11/28 06:02:24;;;;;;;1.62;1.52;;;;;;;5.77;85.49;100010.09;4322326;33;33015;-73
2022/11/28 06:04:53;;;;;;;1.50;1.40;;;;;;;5.34;86.52;100004.94;4320861;33;34716;-72
2022/11/28 06:07:21;;;;;;;1.02;1.02;;;;;;;5.69;86.00;100015.12;4319764;33;35066;-94
2022/11/28 06:09:49;;;;;;;1.42;1.33;;;;;;;5.16;86.98;100012.28;4318432;33;34513;-72
2022/11/28 06:12:17;;;;;;;3.80;2.40;;;;;;;5.79;85.22;100014.47;4320417;33;33589;-72
2022/11/28 06:14:45;;;;;;;0.62;0.62;;;;;;;5.78;83.60;100017.88;4320304;33;33933;-72
2022/11/28 06:17:13;;;;;;;2.55;2.35;;;;;;;5.70;84.29;100016.87;4320967;33;35087;-90
2022/11/28 06:19:42;;;;;;;1.17;1.17;;;;;;;5.63;85.06;100022.72;4307181;33;35194;-90
2022/11/28 06:22:10;;;;;;;1.62;1.15;;;;;;;5.79;83.82;100021.31;4322229;33;34238;-88
2022/11/28 06:24:38;;;;;;;1.98;1.87;;;;;;;5.53;84.36;100016.53;4320055;33;34737;-72
2022/11/28 06:27:06;;;;;;;3.22;2.87;;;;;;;5.65;84.54;100013.31;4319640;33;35081;-88
2022/11/28 06:29:34;;;;;;;2.60;2.40;;;;;;;5.31;84.60;100012.59;4319615;33;34316;-94
2022/11/28 06:32:02;;;;;;;1.05;0.98;;;;;;;5.52;84.28;100014.75;4319706;33;33540;-90
2022/11/28 06:34:31;;;;;;;1.15;1.15;;;;;;;5.53;84.62;100015.66;4319497;33;34531;-82
2022/11/28 06:36:59;;;;;;;4.57;1.35;;;;;;;5.30;85.18;100013.47;4319688;33;35060;-95
2022/11/28 06:39:27;;;;;;;2.28;0.90;;;;;;;5.35;85.10;100011.84;4306439;33;34586;-94
2022/11/28 06:41:56;;;;;;;1.00;1.00;;;;;;;5.38;86.42;100011.03;4319851;33;34383;-72
2022/11/28 06:44:24;;;;;;;0.60;0.60;;;;;;;5.10;86.48;100008.72;4318864;33;34032;-93
2022/11/28 06:46:53;;;;;;;0.50;0.50;;;;;;;5.37;85.84;100005.00;4318634;33;36006;-89
2022/11/28 06:49:21;;;;;;;1.27;1.27;;;;;;;5.34;85.62;100012.69;4320371;33;34406;-89
2022/11/28 06:51:49;;;;;;;3.75;3.17;;;;;;;5.74;83.41;100010.06;4306543;33;33439;-72
2022/11/28 06:54:17;;;;;;;1.30;1.30;;;;;;;5.40;85.67;100014.50;4319613;33;33888;-72
2022/11/28 06:56:46;;;;;;;1.10;1.10;;;;;;;5.36;85.96;100013.56;4319543;33;35200;-93
2022/11/28 06:59:14;;;;;;;2.60;2.40;;;;;;;5.59;84.43;100026.09;4319488;33;35297;-91
2022/11/28 07:01:42;;;;;;;1.75;1.65;;;;;;;5.60;85.41;100025.28;4319454;33;34398;-92
2022/11/28 07:04:10;;;;;;;2.35;1.98;;;;;;;5.01;87.42;100016.28;4319458;33;33971;-72
2022/11/28 07:06:38;;;;;;;0.75;0.75;;;;;;;5.19;86.39;100020.09;4319382;33;34904;-72
2022/11/28 07:09:06;;;;;;;1.73;1.58;;;;;;;5.76;83.91;100016.97;4319419;33;34467;-92
2022/11/28 07:11:35;;;;;;;1.33;1.25;;;;;;;5.78;84.50;100019.59;4319390;33;33725;-93
2022/11/28 07:14:03;;;;;;;3.05;1.75;;;;;;;5.87;83.52;100019.75;4319435;33;33876;-93
2022/11/28 07:16:32;;;;;;;0.55;0.55;;;;;;;5.84;82.88;100012.84;4319296;33;34939;-72
2022/11/28 07:19:01;;;;;;;1.30;1.20;;;;;;;6.06;82.49;100024.47;4319362;33;35320;-71
2022/11/28 07:21:29;;;;;;;1.00;1.00;;;;;;;5.55;84.32;100019.13;4319298;33;33312;-72
2022/11/28 07:23:58;;;;;;;1.50;1.45;;;;;;;5.20;86.01;100021.84;4306227;33;34523;-92
2022/11/28 07:26:27;;;;;;;1.00;1.00;;;;;;;5.18;86.66;100028.69;4319181;33;35142;-89
2022/11/28 07:28:57;;;;;;;0.70;0.70;;;;;;;5.59;84.42;100031.28;4319202;33;35305;-72
2022/11/28 07:31:28;;;;;;;1.17;1.17;;;;;;;5.56;84.13;100032.09;4305761;33;33632;-72
2022/11/28 07:33:56;;;;;;;1.95;1.85;;;;;;;5.51;84.35;100028.53;4319443;33;33957;-72
2022/11/28 07:36:26;;;;;;;1.98;1.85;;;;;;;5.24;85.58;100015.88;4319184;33;35041;-72
2022/11/28 07:38:57;;;;;;;13.30;4.07;;;;;;;5.26;86.26;100019.41;4319183;33;34361;-75
2022/11/28 07:41:26;;;;;;;2.87;2.53;;;;;;;5.57;85.09;100012.28;4306291;33;34445;-72
2022/11/28 07:43:58;;;;;;;1.02;1.02;;;;;;;5.75;83.80;100017.81;4319209;33;36117;-72
2022/11/28 07:46:28;;;;;;;1.10;1.05;;;;;;;5.23;85.92;100014.16;4319234;33;35032;-72
2022/11/28 07:48:56;;;;;;;1.40;1.40;;;;;;;5.78;83.61;100007.53;4319097;33;34528;-72
2022/11/28 07:51:27;;;;;;;3.50;3.10;;;;;;;5.21;85.28;100008.09;4319177;33;33817;-72
2022/11/28 07:53:56;;;;;;;1.10;1.05;;;;;;;5.62;83.62;100000.34;4306011;33;34743;-71
2022/11/28 07:56:27;;;;;;;14.63;4.55;;;;;;;5.42;84.25;99997.38;4319119;33;35258;-89
2022/11/28 07:59:15;;;;;;;2.87;2.15;;;;;;;5.51;85.32;99998.41;4319047;33;34425;-72
2022/11/28 08:01:43;;;;;;;1.08;0.98;;;;;;;5.55;83.07;99995.88;4305904;33;32695;-94
2022/11/28 08:04:12;;;;;;;1.23;1.17;;;;;;;5.13;84.43;99998.50;4318931;33;34716;-72
2022/11/28 08:06:41;;;;;;;2.28;0.73;;;;;;;5.39;83.11;99997.28;4318981;33;35956;-72
2022/11/28 08:09:10;;;;;;;1.30;1.30;;;;;;;4.82;84.67;100006.34;4318932;33;35319;-71
2022/11/28 08:11:40;;;;;;;0.95;0.95;;;;;;;5.07;84.34;100002.63;4318763;33;32734;-72
2022/11/28 08:14:08;;;;;;;0.95;0.88;;;;;;;4.92;84.85;100013.47;4317647;33;34833;-72
2022/11/28 08:16:39;;;;;;;2.10;2.00;;;;;;;4.40;86.07;100009.66;4318751;33;34960;-72
2022/11/28 08:19:08;;;;;;;1.90;1.83;;;;;;;4.51;85.99;100010.78;4318883;33;34501;-89
2022/11/28 08:21:36;;;;;;;1.30;1.30;;;;;;;5.02;83.75;100005.09;4317979;33;33446;-72
2022/11/28 08:24:06;;;;;;;0.60;0.60;;;;;;;4.56;84.38;100011.78;4317730;33;33813;-93
2022/11/28 08:26:36;;;;;;;1.25;1.15;;;;;;;4.82;84.53;100014.09;4305901;33;35861;-72
2022/11/28 08:29:04;;;;;;;1.62;1.52;;;;;;;4.74;83.96;100008.75;4318639;33;35117;-92
2022/11/28 08:31:35;;;;;;;1.35;1.25;;;;;;;4.94;84.10;100014.38;4305321;33;32673;-87
2022/11/28 08:34:06;;;;;;;2.05;1.90;;;;;;;4.99;82.77;100011.91;4317588;33;34611;-91
2022/11/28 08:36:34;;;;;;;1.98;1.80;;;;;;;5.04;81.99;100013.75;4318590;33;35924;-72
2022/11/28 08:39:04;;;;;;;1.75;1.65;;;;;;;4.96;81.50;100022.16;4317381;33;35090;-91
2022/11/28 08:41:56;;;;;;;1.33;1.27;;;;;;;5.10;81.41;100021.66;4318181;33;33553;-87
2022/11/28 08:44:26;;;;;;;1.60;1.50;;;;;;;5.20;79.97;100008.94;4317489;33;34792;-72
2022/11/28 08:46:54;;;;;;;0.82;0.82;;;;;;;4.58;81.74;100020.41;4280218;33;34473;-76
2022/11/28 08:49:22;;;;;;;0.98;0.98;;;;;;;4.45;81.78;100018.38;4303460;33;34047;-74
2022/11/28 08:51:51;;;;;;;0.80;0.80;;;;;;;3.87;84.11;100015.16;4304118;33;33333;-71
2022/11/28 08:54:19;;;;;;;1.20;1.20;;;;;;;4.23;82.90;100028.13;4305565;33;33925;-72
2022/11/28 08:56:47;;;;;;;8.45;4.78;;;;;;;4.82;81.91;100019.25;4304194;33;35061;-87
2022/11/28 08:59:16;;;;;;;1.45;1.42;;;;;;;5.16;79.42;100020.03;4312080;33;34500;-83
2022/11/28 09:01:44;;;;;;;1.55;1.08;;;;;;;4.87;80.66;100018.53;4318110;33;33399;-72
2022/11/28 09:04:12;;;;;;;2.85;2.65;;;;;;;5.04;79.63;100016.31;4306930;33;34778;-89
2022/11/28 09:06:41;;;;;;;5.28;2.70;;;;;;;4.97;79.25;100019.59;4315888;33;35068;-83
2022/11/28 09:09:09;;;;;;;0.52;0.52;;;;;;;5.08;79.39;100018.16;4311633;33;35409;-88
2022/11/28 09:11:37;;;;;;;1.50;1.40;;;;;;;4.92;80.14;100010.88;4311173;33;34287;-87
2022/11/28 09:14:06;;;;;;;0.93;0.80;;;;;;;5.34;78.57;100009.22;4312080;33;34102;-79
2022/11/28 09:16:34;;;;;;;0.90;0.90;;;;;;;5.51;76.63;100011.31;4310105;33;35034;-85
2022/11/28 09:19:02;;;;;;;2.55;2.10;;;;;;;4.86;77.65;100000.44;4310524;33;34426;-79
2022/11/28 09:21:31;;;;;;;0.52;0.52;;;;;;;4.78;78.04;100012.28;4311971;33;34334;-88
2022/11/28 09:23:59;;;;;;;1.10;1.00;;;;;;;4.72;77.93;100011.31;4298051;33;33171;-91
2022/11/28 09:26:28;;;;;;;0.50;0.50;;;;;;;4.94;76.49;100011.78;4310328;33;35256;-93
2022/11/28 09:28:57;;;;;;;0.95;0.95;;;;;;;4.66;78.51;100007.69;4310812;33;34262;-89
2022/11/28 09:31:25;;;;;;;0.93;0.93;;;;;;;4.96;77.72;100004.09;4311764;33;33599;-89
2022/11/28 09:33:54;;;;;;;2.78;2.58;;;;;;;4.89;77.20;100005.69;4297790;33;34732;-79
2022/11/28 09:36:23;;;;;;;1.27;1.23;;;;;;;4.92;77.43;100006.63;4309497;33;34955;-77
2022/11/28 09:38:51;;;;;;;2.85;2.65;;;;;;;5.28;76.32;100000.50;4303803;33;35206;-72
2022/11/28 09:41:40;;;;;;;1.10;1.10;;;;;;;5.13;76.23;99990.75;4321390;33;33331;-87
2022/11/28 09:44:17;;;;;;;2.90;2.70;;;;;;;5.35;75.55;99991.19;4320091;33;33899;-84
2022/11/28 09:46:47;;;;;;;1.48;1.37;;;;;;;5.89;73.67;99974.12;4304713;33;34373;-74
2022/11/28 09:49:57;;;;;;;1.25;1.25;;;;;;;5.67;73.66;99978.03;4304634;33;34480;-75
2022/11/28 09:52:59;;;;;;;2.33;1.30;;;;;;;5.72;74.03;99976.44;4305119;33;32073;-80
2022/11/28 09:55:35;;;;;;;2.53;2.40;;;;;;;5.39;75.50;99967.16;4320561;33;33921;-71
2022/11/28 09:58:18;;;;;;;4.53;1.58;;;;;;;5.51;74.58;99964.81;4318799;33;35757;-78
2022/11/28 10:00:54;;;;;;;1.60;1.50;;;;;;;5.74;74.70;99964.41;4320270;33;35307;-90
2022/11/28 10:03:48;;;;;;;1.62;1.52;;;;;;;5.68;74.10;99949.66;4317257;33;33458;-87
2022/11/28 10:06:27;;;;;;;1.42;1.00;;;;;;;5.78;73.39;99955.84;4303944;33;34035;-91
2022/11/28 10:09:13;;;;;;;0.82;0.82;;;;;;;5.33;74.86;99951.56;4315021;33;35880;-91
2022/11/28 10:12:09;;;;;;;0.68;0.68;;;;;;;5.48;74.43;99953.56;4299253;33;34431;-78
2022/11/28 10:14:49;;;;;;;1.75;1.52;;;;;;;5.89;72.59;99954.34;4312180;33;34155;-84
2022/11/28 10:17:32;;;;;;;3.40;3.10;;;;;;;5.72;72.77;99953.16;4316196;33;33395;-72
2022/11/28 10:20:15;;;;;;;0.93;0.93;;;;;;;5.58;73.04;99952.03;4318076;33;35147;-81
2022/11/28 10:23:27;;;;;;;1.33;1.20;;;;;;;5.60;73.80;99950.34;4306339;33;34527;-83
2022/11/28 10:25:56;;;;;;;0.73;0.73;;;;;;;5.59;73.42;99948.59;4261541;33;34217;-71
2022/11/28 10:28:34;;;;;;;0.50;0.50;;;;;;;5.09;74.32;99947.59;4262314;33;34632;-71
2022/11/28 10:31:18;;;;;;;0.70;0.70;;;;;;;5.61;73.85;99949.50;4300388;33;34258;-79
2022/11/28 10:33:51;;;;;;;1.33;1.23;;;;;;;5.54;72.84;99945.06;4318584;33;35232;-85
2022/11/28 10:36:25;;;;;;;1.25;1.25;;;;;;;5.20;74.22;99937.50;4318654;33;33624;-85
2022/11/28 10:38:53;;;;;;;3.03;1.15;;;;;;;5.61;74.29;99932.31;4319666;33;33816;-84
2022/11/28 10:41:27;;;;;;;0.68;0.68;;;;;;;5.55;71.93;99928.72;4319580;33;35919;-83
2022/11/28 10:44:01;;;;;;;1.00;1.00;;;;;;;5.89;70.93;99928.50;4318560;33;35184;-70
2022/11/28 10:46:56;;;;;;;1.05;1.05;;;;;;;5.66;71.53;99920.31;4319727;33;33575;-85
2022/11/28 10:50:03;;;;;;;1.65;0.98;;;;;;;5.66;70.70;99919.44;4318376;33;34650;-83
2022/11/28 10:52:44;;;;;;;1.55;1.45;;;;;;;5.43;71.18;99919.88;4318491;33;35501;-84
2022/11/28 10:55:21;;;;;;;1.37;1.37;;;;;;;5.66;69.80;99909.13;4306492;33;34461;-74
2022/11/28 10:57:49;;;;;;;2.12;1.20;;;;;;;5.98;69.09;99907.16;4319669;33;34200;-87
2022/11/28 11:00:18;;;;;;;1.77;1.67;;;;;;;5.62;70.16;99904.75;4319558;33;33856;-87
2022/11/28 11:02:50;;;;;;;3.22;1.95;;;;;;;5.60;70.56;99904.72;4318482;33;35005;-86
2022/11/28 11:05:21;;;;;;;1.60;1.48;;;;;;;5.77;69.11;99909.31;4317263;33;34464;-86
2022/11/28 11:08:02;;;;;;;1.62;1.52;;;;;;;5.98;69.15;99898.50;4306818;33;32735;-86
2022/11/28 11:10:30;;;;;;;2.65;2.45;;;;;;;6.02;69.60;99898.59;4314271;33;34701;-86
2022/11/28 11:12:58;;;;;;;1.85;1.73;;;;;;;5.57;69.72;99899.47;4319478;33;35102;-87
2022/11/28 11:15:28;;;;;;;2.10;1.98;;;;;;;5.49;72.73;99901.94;4318226;33;34541;-86
2022/11/28 11:18:02;;;;;;;1.52;1.42;;;;;;;5.97;70.69;99914.88;4319407;33;33696;-86
2022/11/28 11:20:38;;;;;;;0.73;0.73;;;;;;;6.23;68.62;99908.41;4306369;33;33976;-87
2022/11/28 11:23:14;;;;;;;1.85;1.75;;;;;;;5.96;68.97;99907.94;4306481;33;35159;-87
2022/11/28 11:25:52;;;;;;;0.68;0.68;;;;;;;6.32;68.96;99906.81;4306329;33;34808;-85
2022/11/28 11:28:31;;;;;;;2.80;2.60;;;;;;;6.26;68.23;99902.41;4318242;33;33541;-87
2022/11/28 11:31:04;;;;;;;1.98;1.83;;;;;;;5.68;70.98;99908.31;4306214;33;34704;-87
2022/11/28 11:33:35;;;;;;;3.92;2.95;;;;;;;5.62;70.57;99899.59;4319300;33;35587;-85
2022/11/28 11:36:04;;;;;;;1.45;1.35;;;;;;;6.02;69.06;99898.59;4306314;33;35007;-85
2022/11/28 11:38:34;;;;;;;2.67;1.98;;;;;;;6.00;70.31;99899.41;4318183;33;33494;-73
2022/11/28 11:41:28;;;;;;;0.85;0.85;;;;;;;5.88;70.13;99893.16;4306799;33;33893;-86
2022/11/28 11:44:34;;;;;;;2.10;2.00;;;;;;;5.97;70.18;99891.63;4318095;33;35899;-80
2022/11/28 11:47:07;;;;;;;4.12;1.58;;;;;;;6.21;69.42;99889.44;4306110;33;34406;-85
2022/11/28 11:49:37;;;;;;;3.92;3.60;;;;;;;5.79;71.37;99895.59;4306183;33;33497;-87
2022/11/28 11:52:11;;;;;;;3.60;2.05;;;;;;;6.17;69.81;99887.63;4317989;33;34686;-87
2022/11/28 11:54:46;;;;;;;1.52;1.42;;;;;;;6.18;70.54;99891.09;4319178;33;35890;-87
2022/11/28 11:57:15;;;;;;;2.95;2.75;;;;;;;6.31;69.44;99894.72;4319165;33;35244;-86
2022/11/28 12:00:14;;;;;;;2.75;2.55;;;;;;;6.32;69.39;99886.09;4318323;33;33471;-87
2022/11/28 12:02:46;;;;;;;1.77;1.50;;;;;;;5.88;71.26;99881.97;4318039;33;34013;-86
2022/11/28 12:05:16;;;;;;;4.72;3.55;;;;;;;6.11;70.14;99872.03;4317900;33;35830;-86
2022/11/28 12:07:49;;;;;;;1.70;1.60;;;;;;;6.28;69.79;99876.56;4319076;33;34622;-87